createdAt,value
2019-05-20T00:00:49.759Z,11.93
2019-05-20T00:03:17.032Z,8.83
2019-05-20T00:05:44.290Z,9.98
2019-05-20T00:08:11.569Z,9.23
2019-05-20T00:10:38.795Z,11.97
2019-05-20T00:13:05.996Z,10.13
2019-05-20T00:15:33.496Z,10.68
2019-05-20T00:18:00.697Z,11.33
2019-05-20T00:20:27.919Z,9.43
2019-05-20T00:22:55.182Z,8.75
2019-05-20T00:25:22.584Z,9.53
2019-05-20T00:27:49.856Z,9.30
2019-05-20T00:30:17.450Z,9.45
2019-05-20T00:32:44.692Z,9.55
2019-05-20T00:35:12.345Z,8.33
2019-05-20T00:37:39.600Z,11.48
2019-05-20T00:40:07.222Z,14.25
2019-05-20T00:42:34.538Z,9.15
2019-05-20T00:45:01.760Z,12.53
2019-05-20T00:47:29.056Z,13.08
2019-05-20T00:49:56.323Z,11.85
2019-05-20T00:52:23.553Z,6.65
2019-05-20T00:54:50.835Z,6.83
2019-05-20T00:57:18.339Z,4.40
2019-05-20T00:59:45.540Z,6.47
2019-05-20T01:02:13.227Z,5.53
2019-05-20T01:04:40.485Z,5.30
2019-05-20T01:07:07.709Z,7.92
2019-05-20T01:09:34.984Z,9.40
2019-05-20T01:12:02.288Z,10.72
2019-05-20T01:14:29.512Z,6.37
2019-05-20T01:16:56.732Z,7.03
2019-05-20T01:19:23.936Z,5.90
2019-05-20T01:21:51.181Z,9.05
2019-05-20T01:24:18.781Z,6.40
2019-05-20T01:26:46.092Z,5.37
2019-05-20T01:29:13.422Z,4.70
2019-05-20T01:31:40.722Z,4.65
2019-05-20T01:34:07.989Z,6.05
2019-05-20T01:36:35.298Z,7.03
2019-05-20T01:39:02.564Z,8.55
2019-05-20T01:41:29.789Z,7.05
2019-05-20T01:43:57.115Z,11.60
2019-05-20T01:46:24.364Z,11.45
2019-05-20T01:48:51.744Z,14.35
2019-05-20T01:51:18.958Z,11.43
2019-05-20T01:53:46.256Z,10.00
2019-05-20T01:56:13.455Z,5.20
2019-05-20T01:58:40.947Z,5.03
2019-05-20T02:01:08.265Z,3.87
2019-05-20T02:03:35.501Z,3.92
2019-05-20T02:06:03.082Z,5.83
2019-05-20T02:08:30.384Z,6.15
2019-05-20T02:10:57.580Z,6.33
2019-05-20T02:13:26.464Z,20.43
2019-05-20T02:15:58.260Z,13.22
2019-05-20T02:18:25.541Z,10.58
2019-05-20T02:20:52.754Z,25.08
2019-05-20T02:23:20.052Z,15.32
2019-05-20T02:25:47.882Z,13.78
2019-05-20T02:28:15.110Z,18.75
2019-05-20T02:30:42.319Z,28.07
2019-05-20T02:33:10.094Z,23.20
2019-05-20T02:35:37.311Z,16.10
2019-05-20T02:38:04.607Z,18.17
2019-05-20T02:40:31.805Z,13.75
2019-05-20T02:42:59.297Z,17.50
2019-05-20T02:45:26.579Z,14.80
2019-05-20T02:47:53.877Z,7.95
2019-05-20T02:50:21.216Z,13.05
2019-05-20T02:52:48.525Z,30.37
2019-05-20T02:55:15.733Z,28.87
2019-05-20T02:57:43.037Z,33.10
2019-05-20T03:00:10.248Z,22.05
2019-05-20T03:02:37.521Z,21.35
2019-05-20T03:05:05.782Z,27.98
2019-05-20T03:07:33.097Z,18.48
2019-05-20T03:10:00.328Z,32.15
2019-05-20T03:12:27.538Z,37.28
2019-05-20T03:14:54.840Z,21.15
2019-05-20T03:17:22.385Z,22.30
2019-05-20T03:19:49.684Z,20.82
2019-05-20T03:22:17.298Z,17.73
2019-05-20T03:24:44.529Z,22.35
2019-05-20T03:27:11.737Z,22.58
2019-05-20T03:29:39.042Z,13.90
2019-05-20T03:32:06.243Z,14.98
2019-05-20T03:34:58.571Z,10.58
2019-05-20T03:37:02.488Z,16.70
2019-05-20T03:39:30.770Z,35.23
2019-05-20T03:41:58.044Z,24.63
2019-05-20T03:44:25.279Z,24.00
2019-05-20T03:46:52.551Z,16.90
2019-05-20T03:49:19.808Z,36.10
2019-05-20T03:51:47.105Z,25.32
2019-05-20T03:54:14.336Z,48.80
2019-05-20T03:56:41.554Z,35.28
2019-05-20T03:59:08.865Z,28.77
2019-05-20T04:01:36.136Z,22.10
2019-05-20T04:04:03.405Z,20.12
2019-05-20T04:06:30.665Z,25.23
2019-05-20T04:08:57.975Z,23.27
2019-05-20T04:11:25.173Z,20.37
2019-05-20T04:13:52.472Z,15.28
2019-05-20T04:16:19.693Z,9.93
2019-05-20T04:18:46.902Z,30.25
2019-05-20T04:21:14.138Z,33.88
2019-05-20T04:23:41.520Z,26.30
2019-05-20T04:26:08.812Z,36.03
2019-05-20T04:28:36.354Z,31.52
2019-05-20T04:31:04.024Z,18.95
2019-05-20T04:33:31.339Z,19.00
2019-05-20T04:35:58.645Z,17.30
2019-05-20T04:38:25.924Z,32.10
2019-05-20T04:40:53.534Z,20.32
2019-05-20T04:43:20.753Z,21.52
2019-05-20T04:45:48.075Z,33.67
2019-05-20T04:48:15.344Z,26.93
2019-05-20T04:50:42.592Z,21.02
2019-05-20T04:53:09.814Z,20.17
2019-05-20T04:55:37.464Z,31.25
2019-05-20T04:58:04.734Z,18.35
2019-05-20T05:00:48.815Z,17.70
2019-05-20T05:03:16.084Z,9.75
2019-05-20T05:05:43.331Z,31.07
2019-05-20T05:08:10.609Z,15.40
2019-05-20T05:10:37.843Z,27.93
2019-05-20T05:13:05.051Z,28.07
2019-05-20T05:15:32.356Z,20.85
2019-05-20T05:17:59.925Z,24.65
2019-05-20T05:20:27.249Z,13.68
2019-05-20T05:22:54.524Z,15.68
2019-05-20T05:25:21.732Z,22.52
2019-05-20T05:27:49.328Z,16.52
2019-05-20T05:30:16.740Z,14.53
2019-05-20T05:32:45.012Z,9.98
2019-05-20T05:35:13.912Z,15.43
2019-05-20T05:37:41.216Z,16.85
2019-05-20T05:40:08.547Z,26.65
2019-05-20T05:42:37.181Z,24.63
2019-05-20T05:45:05.321Z,22.62
2019-05-20T05:47:32.553Z,13.60
2019-05-20T05:49:59.836Z,22.27
2019-05-20T05:52:27.064Z,18.52
2019-05-20T05:54:54.348Z,36.38
2019-05-20T05:57:21.577Z,16.90
2019-05-20T05:59:48.782Z,12.15
2019-05-20T06:02:16.014Z,11.03
2019-05-20T06:04:43.216Z,18.30
2019-05-20T06:07:10.782Z,19.17
2019-05-20T06:09:38.052Z,19.00
2019-05-20T06:12:05.285Z,17.70
2019-05-20T06:14:32.564Z,16.55
2019-05-20T06:16:59.840Z,23.57
2019-05-20T06:19:27.045Z,28.07
2019-05-20T06:21:54.600Z,31.60
2019-05-20T06:24:21.899Z,26.97
2019-05-20T06:26:49.178Z,31.75
2019-05-20T06:29:16.381Z,32.23
2019-05-20T06:31:43.668Z,34.55
2019-05-20T06:34:10.938Z,30.90
2019-05-20T06:36:39.820Z,29.82
2019-05-20T06:39:11.161Z,25.88
2019-05-20T06:41:38.379Z,32.53
2019-05-20T06:44:05.694Z,35.85
2019-05-20T06:46:32.991Z,36.70
2019-05-20T06:49:00.284Z,18.57
2019-05-20T06:51:27.748Z,17.57
2019-05-20T06:53:54.984Z,25.05
2019-05-20T06:56:22.296Z,12.85
2019-05-20T06:58:49.602Z,22.32
2019-05-20T07:01:16.883Z,26.07
2019-05-20T07:03:44.189Z,22.58
2019-05-20T07:06:11.393Z,17.48
2019-05-20T07:08:38.624Z,11.95
2019-05-20T07:11:05.899Z,19.62
2019-05-20T07:13:33.259Z,30.27
2019-05-20T07:16:00.487Z,30.15
2019-05-20T07:18:27.796Z,31.10
2019-05-20T07:20:55.000Z,19.20
2019-05-20T07:23:22.314Z,34.30
2019-05-20T07:25:49.608Z,28.62
2019-05-20T07:28:17.246Z,28.62
2019-05-20T07:30:44.552Z,21.75
2019-05-20T07:33:11.866Z,16.42
2019-05-20T07:35:39.742Z,16.70
2019-05-20T07:38:07.056Z,29.67
2019-05-20T07:40:34.424Z,17.10
2019-05-20T07:43:01.738Z,18.25
2019-05-20T07:45:29.066Z,25.90
2019-05-20T07:47:56.434Z,19.40
2019-05-20T07:50:23.679Z,21.97
2019-05-20T07:52:50.931Z,15.08
2019-05-20T07:55:18.179Z,17.75
2019-05-20T07:57:45.412Z,14.55
2019-05-20T08:00:12.812Z,23.80
2019-05-20T08:02:40.085Z,17.00
2019-05-20T08:05:07.716Z,16.75
2019-05-20T08:07:51.482Z,11.08
2019-05-20T08:10:05.604Z,13.55
2019-05-20T08:12:32.818Z,11.95
2019-05-20T08:15:00.569Z,14.30
2019-05-20T08:17:27.857Z,8.75
2019-05-20T08:19:55.166Z,10.23
2019-05-20T08:22:22.469Z,9.68
2019-05-20T08:24:49.737Z,14.45
2019-05-20T08:27:16.932Z,11.35
2019-05-20T08:29:44.170Z,8.88
2019-05-20T08:32:11.440Z,14.15
2019-05-20T08:34:39.666Z,8.60
2019-05-20T08:37:07.784Z,6.20
2019-05-20T08:39:35.093Z,5.37
2019-05-20T08:42:02.401Z,9.90
2019-05-20T08:44:29.717Z,10.68
2019-05-20T08:46:56.997Z,11.43
2019-05-20T08:49:24.332Z,6.90
2019-05-20T08:51:51.660Z,10.72
2019-05-20T08:54:19.433Z,5.65
2019-05-20T08:56:49.306Z,4.25
2019-05-20T08:59:15.612Z,8.83
2019-05-20T09:01:42.838Z,9.30
2019-05-20T09:04:10.118Z,6.62
2019-05-20T09:06:37.414Z,8.93
2019-05-20T09:09:05.828Z,5.72
2019-05-20T09:11:33.062Z,6.42
2019-05-20T09:14:00.335Z,3.33
2019-05-20T09:16:27.632Z,3.15
2019-05-20T09:18:54.841Z,4.65
2019-05-20T09:21:22.149Z,7.97
2019-05-20T09:23:49.412Z,7.87
2019-05-20T09:26:16.660Z,5.45
2019-05-20T09:28:44.220Z,4.37
2019-05-20T09:31:11.449Z,4.10
2019-05-20T09:33:38.649Z,7.25
2019-05-20T09:36:05.967Z,5.75
2019-05-20T09:38:36.810Z,6.72
2019-05-20T09:41:02.558Z,8.13
2019-05-20T09:43:29.829Z,12.78
2019-05-20T09:46:06.644Z,20.50
2019-05-20T09:48:26.016Z,11.60
2019-05-20T09:50:53.313Z,8.58
2019-05-20T09:53:20.785Z,12.25
2019-05-20T09:55:48.070Z,10.55
2019-05-20T09:58:15.364Z,12.25
2019-05-20T10:00:42.917Z,14.73
2019-05-20T10:03:10.454Z,12.80
2019-05-20T10:05:38.038Z,15.93
2019-05-20T10:08:05.414Z,16.35
2019-05-20T10:10:32.753Z,16.42
2019-05-20T10:13:00.029Z,21.82
2019-05-20T10:15:27.354Z,22.50
2019-05-20T10:17:54.600Z,21.48
2019-05-20T10:20:21.869Z,23.02
2019-05-20T10:22:49.108Z,29.63
2019-05-20T10:25:16.378Z,30.75
2019-05-20T10:27:43.693Z,21.17
2019-05-20T10:30:10.968Z,23.87
2019-05-20T10:32:38.276Z,16.25
2019-05-20T10:35:05.772Z,25.23
2019-05-20T10:37:33.013Z,31.90
2019-05-20T10:40:00.286Z,24.65
2019-05-20T10:42:27.521Z,35.60
2019-05-20T10:44:54.793Z,17.35
2019-05-20T10:47:22.025Z,17.60
2019-05-20T10:49:49.313Z,21.90
2019-05-20T10:52:16.555Z,18.95
2019-05-20T10:54:43.837Z,22.93
2019-05-20T10:57:11.177Z,26.10
2019-05-20T10:59:38.379Z,27.30
2019-05-20T11:02:05.616Z,29.75
2019-05-20T11:04:35.416Z,31.27
2019-05-20T11:07:01.844Z,35.03
2019-05-20T11:09:29.049Z,31.75
2019-05-20T11:11:56.360Z,26.93
2019-05-20T11:14:23.647Z,14.58
2019-05-20T11:16:50.924Z,19.73
2019-05-20T11:19:18.161Z,24.55
2019-05-20T11:21:45.415Z,21.07
2019-05-20T11:24:12.701Z,37.58
2019-05-20T11:26:40.280Z,31.50
2019-05-20T11:29:07.941Z,31.37
2019-05-20T11:31:35.151Z,27.40
2019-05-20T11:34:02.668Z,25.80
2019-05-20T11:36:29.868Z,26.68
2019-05-20T11:38:57.133Z,26.15
2019-05-20T11:41:47.029Z,18.60
2019-05-20T11:43:53.407Z,25.37
2019-05-20T11:46:20.604Z,12.85
2019-05-20T11:48:47.908Z,23.35
2019-05-20T11:51:15.114Z,32.88
2019-05-20T11:53:42.344Z,22.30
2019-05-20T11:56:12.029Z,22.17
2019-05-20T11:58:38.584Z,25.85
2019-05-20T12:01:05.818Z,21.20
2019-05-20T12:03:33.123Z,30.02
2019-05-20T12:06:00.468Z,27.52
2019-05-20T12:08:27.755Z,26.10
2019-05-20T12:10:55.032Z,33.45
2019-05-20T12:13:22.263Z,22.15
2019-05-20T12:15:49.488Z,57.27
2019-05-20T12:18:16.724Z,30.75
2019-05-20T12:20:44.005Z,32.33
2019-05-20T12:23:11.516Z,29.70
2019-05-20T12:25:40.516Z,20.20
2019-05-20T12:28:07.765Z,31.25
2019-05-20T12:30:35.011Z,29.45
2019-05-20T12:33:17.984Z,20.27
2019-05-20T12:35:31.327Z,20.77
2019-05-20T12:37:58.723Z,16.55
2019-05-20T12:40:25.964Z,24.15
2019-05-20T12:42:53.244Z,17.90
2019-05-20T12:45:20.550Z,21.40
2019-05-20T12:47:47.848Z,28.90
2019-05-20T12:50:15.140Z,35.92
2019-05-20T12:52:42.673Z,36.17
2019-05-20T12:55:10.456Z,18.60
2019-05-20T12:57:38.096Z,24.15
2019-05-20T13:00:06.376Z,46.25
2019-05-20T13:02:33.581Z,22.32
2019-05-20T13:05:00.808Z,15.55
2019-05-20T13:07:28.020Z,19.10
2019-05-20T13:09:55.255Z,26.27
2019-05-20T13:12:22.540Z,26.48
2019-05-20T13:14:49.768Z,19.98
2019-05-20T13:17:17.069Z,27.48
2019-05-20T13:19:44.352Z,17.52
2019-05-20T13:22:11.579Z,19.87
2019-05-20T13:24:38.942Z,34.00
2019-05-20T13:27:06.144Z,35.10
2019-05-20T13:29:33.384Z,28.67
2019-05-20T13:32:00.671Z,39.83
2019-05-20T13:34:27.963Z,34.90
2019-05-20T13:36:55.276Z,41.28
2019-05-20T13:39:22.647Z,37.58
2019-05-20T13:41:50.256Z,40.25
2019-05-20T13:44:17.533Z,35.05
2019-05-20T13:46:45.165Z,32.95
2019-05-20T13:49:12.372Z,35.83
2019-05-20T13:51:39.681Z,24.43
2019-05-20T13:54:07.253Z,25.15
2019-05-20T13:56:34.560Z,28.83
2019-05-20T13:59:01.838Z,39.25
2019-05-20T14:01:29.183Z,42.15
2019-05-20T14:03:57.401Z,43.40
2019-05-20T14:06:24.843Z,21.95
2019-05-20T14:08:52.053Z,21.90
2019-05-20T14:11:32.568Z,35.90
2019-05-20T14:13:48.285Z,30.02
2019-05-20T14:16:15.590Z,30.62
2019-05-20T14:18:43.142Z,22.65
2019-05-20T14:21:10.389Z,22.93
2019-05-20T14:23:37.688Z,26.27
2019-05-20T14:26:04.989Z,21.45
2019-05-20T14:28:32.648Z,25.57
2019-05-20T14:30:59.944Z,31.33
2019-05-20T14:33:27.153Z,22.67
2019-05-20T14:35:54.460Z,25.88
2019-05-20T14:38:21.671Z,20.57
2019-05-20T14:40:49.026Z,38.25
2019-05-20T14:43:16.552Z,29.30
2019-05-20T14:45:43.797Z,39.35
2019-05-20T14:48:11.133Z,26.35
2019-05-20T14:50:38.386Z,21.82
2019-05-20T14:53:05.705Z,35.65
2019-05-20T14:55:41.789Z,37.85
2019-05-20T14:58:02.153Z,33.50
2019-05-20T15:00:29.456Z,31.00
2019-05-20T15:02:56.748Z,27.90
2019-05-20T15:05:23.949Z,27.48
2019-05-20T15:07:51.198Z,40.50
2019-05-20T15:10:18.468Z,37.75
2019-05-20T15:12:46.027Z,24.80
2019-05-20T15:15:13.289Z,20.23
2019-05-20T15:17:40.569Z,25.52
2019-05-20T15:20:07.949Z,36.03
2019-05-20T15:22:35.269Z,32.30
2019-05-20T15:25:02.474Z,21.35
2019-05-20T15:27:29.755Z,31.27
2019-05-20T15:29:57.064Z,25.88
2019-05-20T15:32:24.368Z,42.45
2019-05-20T15:34:52.082Z,25.95
2019-05-20T15:37:19.426Z,19.50
2019-05-20T15:39:46.742Z,31.57
2019-05-20T15:42:13.993Z,27.60
2019-05-20T15:44:41.350Z,34.53
2019-05-20T15:47:08.656Z,39.10
2019-05-20T15:49:35.867Z,37.28
2019-05-20T15:52:03.157Z,45.28
2019-05-20T15:54:30.461Z,38.35
2019-05-20T15:56:57.674Z,34.30
2019-05-20T15:59:24.978Z,43.85
2019-05-20T16:01:52.260Z,31.45
2019-05-20T16:04:19.839Z,32.28
2019-05-20T16:06:47.047Z,30.15
2019-05-20T16:09:16.958Z,32.73
2019-05-20T16:11:43.228Z,47.73
2019-05-20T16:14:10.538Z,38.90
2019-05-20T16:16:37.865Z,37.33
2019-05-20T16:19:05.101Z,54.88
2019-05-20T16:21:32.389Z,39.53
2019-05-20T16:23:59.681Z,34.40
2019-05-20T16:26:29.858Z,38.67
2019-05-20T16:28:55.925Z,39.65
2019-05-20T16:31:23.137Z,37.95
2019-05-20T16:33:50.368Z,29.75
2019-05-20T16:36:17.568Z,41.77
2019-05-20T16:38:44.800Z,37.48
2019-05-20T16:41:12.009Z,30.88
2019-05-20T16:43:39.314Z,33.45
2019-05-20T16:46:06.529Z,26.97
2019-05-20T16:48:34.200Z,29.60
2019-05-20T16:51:01.641Z,30.55
2019-05-20T16:53:28.944Z,36.95
2019-05-20T16:55:56.154Z,29.02
2019-05-20T16:58:23.392Z,35.03
2019-05-20T17:00:50.600Z,25.32
2019-05-20T17:03:18.168Z,38.30
2019-05-20T17:05:45.616Z,24.35
2019-05-20T17:08:12.869Z,18.75
2019-05-20T17:10:40.105Z,22.25
2019-05-20T17:13:07.322Z,24.90
2019-05-20T17:15:34.724Z,24.85
2019-05-20T17:18:02.020Z,28.50
2019-05-20T17:20:29.324Z,18.45
2019-05-20T17:22:57.000Z,26.62
2019-05-20T17:25:24.336Z,16.82
2019-05-20T17:27:51.612Z,17.98
2019-05-20T17:30:18.838Z,17.85
2019-05-20T17:32:46.112Z,12.53
2019-05-20T17:35:13.420Z,27.37
2019-05-20T17:37:40.696Z,20.23
2019-05-20T17:40:07.968Z,18.45
2019-05-20T17:42:35.168Z,29.48
2019-05-20T17:45:02.705Z,36.85
2019-05-20T17:47:30.021Z,40.28
2019-05-20T17:49:57.261Z,29.60
2019-05-20T17:52:24.548Z,39.48
2019-05-20T17:54:51.781Z,27.32
2019-05-20T17:57:19.342Z,33.05
2019-05-20T17:59:46.757Z,31.25
2019-05-20T18:02:14.033Z,29.57
2019-05-20T18:04:41.357Z,22.55
2019-05-20T18:07:08.573Z,27.32
2019-05-20T18:09:37.493Z,18.90
2019-05-20T18:12:04.865Z,23.10
2019-05-20T18:14:32.164Z,33.70
2019-05-20T18:16:59.396Z,20.77
2019-05-20T18:19:26.677Z,31.95
2019-05-20T18:21:53.911Z,25.00
2019-05-20T18:24:21.122Z,16.90
2019-05-20T18:26:48.604Z,23.40
2019-05-20T18:29:15.830Z,25.90
2019-05-20T18:31:43.491Z,18.75
2019-05-20T18:34:10.833Z,26.23
2019-05-20T18:36:38.036Z,20.43
2019-05-20T18:39:06.227Z,26.05
2019-05-20T18:41:33.610Z,15.58
2019-05-20T18:44:00.888Z,19.90
2019-05-20T18:46:28.460Z,19.20
2019-05-20T18:48:55.716Z,20.48
2019-05-20T18:51:23.009Z,21.50
2019-05-20T18:53:50.217Z,23.07
2019-05-20T18:56:17.532Z,21.97
2019-05-20T18:58:44.733Z,13.43
2019-05-20T19:01:12.018Z,16.40
2019-05-20T19:03:39.686Z,24.92
2019-05-20T19:06:06.912Z,30.97
2019-05-20T19:08:34.111Z,20.52
2019-05-20T19:11:01.365Z,24.85
2019-05-20T19:13:28.939Z,30.55
2019-05-20T19:15:56.220Z,18.75
2019-05-20T19:18:23.566Z,24.32
2019-05-20T19:20:50.823Z,27.02
2019-05-20T19:23:18.456Z,34.80
2019-05-20T19:25:45.660Z,31.95
2019-05-20T19:28:13.017Z,32.13
2019-05-20T19:30:40.273Z,28.77
2019-05-20T19:33:07.653Z,39.83
2019-05-20T19:35:35.329Z,30.43
2019-05-20T19:38:02.640Z,40.63
2019-05-20T19:40:30.746Z,32.58
2019-05-20T19:42:58.599Z,26.62
2019-05-20T19:45:25.888Z,38.78
2019-05-20T19:47:53.140Z,29.20
2019-05-20T19:50:20.358Z,28.60
2019-05-20T19:52:47.692Z,22.17
2019-05-20T19:55:18.658Z,23.45
2019-05-20T19:57:43.892Z,13.75
2019-05-20T20:00:11.267Z,18.70
2019-05-20T20:02:38.477Z,17.95
2019-05-20T20:05:06.535Z,35.20
2019-05-20T20:07:33.864Z,34.13
2019-05-20T20:10:01.072Z,26.35
2019-05-20T20:12:28.350Z,28.25
2019-05-20T20:14:55.664Z,27.73
2019-05-20T20:17:22.988Z,29.12
2019-05-20T20:19:50.569Z,23.75
2019-05-20T20:22:17.880Z,21.33
2019-05-20T20:24:45.085Z,27.93
2019-05-20T20:27:12.289Z,25.43
2019-05-20T20:29:39.532Z,29.82
2019-05-20T20:32:07.021Z,24.95
2019-05-20T20:34:34.224Z,31.42
2019-05-20T20:37:01.571Z,27.30
2019-05-20T20:39:28.852Z,26.40
2019-05-20T20:41:56.069Z,23.12
2019-05-20T20:44:23.373Z,23.40
2019-05-20T20:46:50.580Z,27.60
2019-05-20T20:49:17.781Z,20.82
2019-05-20T20:51:45.036Z,26.23
2019-05-20T20:54:12.243Z,29.82
2019-05-20T20:56:39.842Z,23.12
2019-05-20T20:59:07.160Z,25.17
2019-05-20T21:01:34.444Z,37.40
2019-05-20T21:04:01.648Z,34.30
2019-05-20T21:06:28.889Z,19.70
2019-05-20T21:08:56.093Z,25.88
2019-05-20T21:11:23.300Z,30.60
2019-05-20T21:13:50.548Z,31.60
2019-05-20T21:16:17.748Z,22.62
2019-05-20T21:18:45.308Z,24.12
2019-05-20T21:21:12.564Z,22.62
2019-05-20T21:23:39.773Z,29.60
2019-05-20T21:26:06.976Z,41.75
2019-05-20T21:28:34.226Z,29.23
2019-05-20T21:31:01.497Z,29.85
2019-05-20T21:33:28.745Z,27.17
2019-05-20T21:35:55.976Z,21.27
2019-05-20T21:38:23.182Z,38.15
2019-05-20T21:40:50.524Z,31.42
2019-05-20T21:43:17.734Z,36.55
2019-05-20T21:45:45.129Z,34.27
2019-05-20T21:48:12.634Z,41.48
2019-05-20T21:50:40.193Z,28.38
2019-05-20T21:53:07.473Z,23.07
2019-05-20T21:55:34.706Z,46.98
2019-05-20T21:58:02.173Z,25.52
2019-05-20T22:00:47.748Z,22.50
2019-05-20T22:03:23.924Z,31.97
2019-05-20T22:05:43.908Z,24.12
2019-05-20T22:08:11.437Z,30.52
2019-05-20T22:10:38.741Z,40.48
2019-05-20T22:13:05.960Z,38.42
2019-05-20T22:15:33.332Z,25.35
2019-05-20T22:18:00.873Z,19.75
2019-05-20T22:20:28.177Z,37.88
2019-05-20T22:23:08.842Z,26.68
2019-05-20T22:25:36.144Z,28.92
2019-05-20T22:28:03.360Z,32.10
2019-05-20T22:30:30.777Z,32.28
2019-05-20T22:32:57.981Z,30.10
2019-05-20T22:35:25.285Z,31.73
2019-05-20T22:37:52.490Z,26.48
2019-05-20T22:40:19.722Z,23.45
2019-05-20T22:42:46.932Z,30.65
2019-05-20T22:45:14.235Z,24.92
2019-05-20T22:47:41.462Z,29.02
2019-05-20T22:50:08.740Z,22.48
2019-05-20T22:52:36.048Z,15.00
2019-05-20T22:55:03.829Z,13.38
2019-05-20T22:57:31.056Z,18.52
2019-05-20T22:59:58.557Z,16.75
2019-05-20T23:02:25.872Z,27.45
2019-05-20T23:04:53.072Z,37.63
2019-05-20T23:07:20.384Z,20.12
2019-05-20T23:09:47.589Z,20.43
2019-05-20T23:12:14.820Z,26.40
2019-05-20T23:14:42.092Z,19.48
2019-05-20T23:17:09.324Z,24.80
2019-05-20T23:19:36.532Z,18.75
2019-05-20T23:22:04.122Z,17.02
2019-05-20T23:24:31.417Z,21.77
2019-05-20T23:26:58.717Z,14.53
2019-05-20T23:29:25.932Z,21.65
2019-05-20T23:31:53.441Z,19.67
2019-05-20T23:34:20.713Z,15.32
2019-05-20T23:36:48.010Z,12.88
2019-05-20T23:39:15.420Z,13.32
2019-05-20T23:41:42.725Z,16.30
2019-05-20T23:44:09.995Z,10.23
2019-05-20T23:46:37.224Z,13.72
2019-05-20T23:49:04.704Z,11.30
2019-05-20T23:51:31.936Z,26.23
2019-05-20T23:53:59.136Z,14.75
2019-05-20T23:56:26.332Z,9.53
2019-05-20T23:58:53.559Z,10.15
